Time;durP1;ratioP1;P1;durP2;ratioP2;P2;SDS_P1;SDS_P2;PMS_P1;PMS_P2;Temp;Humidity;BMP_temperature;BMP_pressure;BME280_temperature;BME280_humidity;BME280_pressure;Samples;Min_cycle;Max_cycle;Signal;HPM_P1;HPM_P2
2022/01/21 00:01:13;;;;;;;4.78;1.20;;;;;;;-3.70;99.27;102535.03;4967007;28;20490;-76
2022/01/21 00:03:40;;;;;;;7.90;1.50;;;;;;;-3.67;99.31;102542.69;4986410;28;20717;-77
2022/01/21 00:06:06;;;;;;;11.70;1.48;;;;;;;-3.73;98.43;102533.31;4963935;28;20046;-76
2022/01/21 00:08:37;;;;;;;8.98;1.45;;;;;;;-3.73;99.66;102530.75;4965936;28;20031;-77
2022/01/21 00:11:03;;;;;;;9.15;1.35;;;;;;;-3.72;98.94;102525.63;4966647;28;20034;-77
2022/01/21 00:13:36;;;;;;;7.43;1.38;;;;;;;-3.81;99.06;102525.69;4965099;28;20026;-77
2022/01/21 00:16:22;;;;;;;7.38;1.63;;;;;;;-3.90;99.47;102518.06;4946289;28;20051;-78
2022/01/21 00:18:57;;;;;;;14.27;1.50;;;;;;;-3.88;100.00;102524.06;4957663;28;20030;-77
2022/01/21 00:32:22;;;;;;;6.57;1.30;;;;;;;-3.93;100.00;102516.38;4963861;28;20551;-77
2022/01/21 00:34:48;;;;;;;13.10;1.85;;;;;;;-3.89;100.00;102509.50;4969850;28;20106;-76
2022/01/21 00:37:13;;;;;;;7.50;1.88;;;;;;;-3.83;100.00;102506.91;4967527;28;20117;-77
2022/01/21 00:39:41;;;;;;;8.95;1.52;;;;;;;-3.85;100.00;102511.19;4975312;28;20045;-77
2022/01/21 00:44:36;;;;;;;8.98;1.67;;;;;;;-3.85;100.00;102497.53;4968107;28;20043;-77
2022/01/21 00:47:02;;;;;;;6.68;1.80;;;;;;;-3.86;100.00;102517.19;4953130;28;20049;-78
2022/01/21 00:49:28;;;;;;;10.75;1.50;;;;;;;-3.76;100.00;102523.09;4959618;28;20516;-76
2022/01/21 00:51:53;;;;;;;10.93;1.80;;;;;;;-3.74;100.00;102517.09;4945248;28;20073;-76
2022/01/21 00:54:20;;;;;;;9.70;1.70;;;;;;;-3.75;100.00;102520.53;4976483;28;20495;-76
2022/01/21 00:56:46;;;;;;;10.52;1.45;;;;;;;-3.76;100.00;102529.09;4955719;28;20053;-77
2022/01/21 00:59:11;;;;;;;11.93;2.03;;;;;;;-3.86;100.00;102518.88;4942553;28;20466;-77
2022/01/21 01:01:37;;;;;;;7.03;1.63;;;;;;;-3.88;100.00;102503.53;4959602;28;20049;-76
2022/01/21 01:04:03;;;;;;;7.60;1.67;;;;;;;-3.83;100.00;102513.75;4956344;28;20065;-77
2022/01/21 01:06:31;;;;;;;9.07;1.45;;;;;;;-3.96;100.00;102503.56;4962589;28;20121;-76
2022/01/21 01:08:57;;;;;;;11.77;2.33;;;;;;;-4.01;100.00;102495.06;4968544;28;20122;-76
2022/01/21 01:22:11;;;;;;;8.35;1.52;;;;;;;-4.00;100.00;102514.69;4968720;28;20046;-76
2022/01/21 01:29:57;;;;;;;9.23;1.73;;;;;;;-3.81;100.00;102504.34;4967669;28;20031;-77
2022/01/21 01:32:24;;;;;;;9.02;1.70;;;;;;;-3.86;100.00;102521.44;4968098;28;20057;-76
2022/01/21 01:34:51;;;;;;;13.90;1.73;;;;;;;-3.91;100.00;102506.97;4976414;28;20035;-77
2022/01/21 01:37:33;;;;;;;14.40;1.80;;;;;;;-3.96;100.00;102508.69;4968447;28;20047;-76
2022/01/21 01:50:49;;;;;;;9.63;1.75;;;;;;;-4.21;100.00;102481.53;4967359;28;20030;-76
2022/01/21 01:53:17;;;;;;;8.07;1.60;;;;;;;-4.17;100.00;102489.19;4937994;28;20475;-77
2022/01/21 01:55:44;;;;;;;10.10;1.67;;;;;;;-4.03;100.00;102495.94;4962551;28;20069;-76
2022/01/21 01:58:12;;;;;;;10.05;1.83;;;;;;;-4.05;100.00;102489.97;4963600;28;20043;-77
2022/01/21 02:00:39;;;;;;;14.13;1.63;;;;;;;-4.09;100.00;102488.28;4969477;28;20050;-76
2022/01/21 02:03:06;;;;;;;12.05;1.80;;;;;;;-4.09;100.00;102489.13;4969979;28;20118;-77
2022/01/21 02:05:32;;;;;;;10.90;1.70;;;;;;;-4.17;100.00;102488.34;4971384;28;20033;-76
2022/01/21 02:07:57;;;;;;;14.00;1.52;;;;;;;-4.17;100.00;102486.63;4967890;28;20034;-75
2022/01/21 02:10:23;;;;;;;8.85;1.67;;;;;;;-4.09;100.00;102489.13;4981326;28;20488;-76
2022/01/21 02:12:49;;;;;;;9.63;1.45;;;;;;;-4.04;100.00;102479.69;4967625;28;20042;-76
2022/01/21 02:15:15;;;;;;;9.55;1.70;;;;;;;-4.02;100.00;102483.09;4968238;28;20042;-75
2022/01/21 02:22:52;;;;;;;17.90;1.90;;;;;;;-3.86;100.00;102480.44;4970943;28;20046;-76
2022/01/21 02:25:21;;;;;;;11.93;2.10;;;;;;;-3.91;100.00;102480.47;4975240;28;20522;-76
2022/01/21 02:27:55;;;;;;;10.73;1.58;;;;;;;-3.85;100.00;102490.69;4945219;28;20046;-75
2022/01/21 02:30:22;;;;;;;;;;;;;;;-3.67;100.00;102489.69;4984176;28;20639;-76
2022/01/21 02:32:56;;;;;;;15.18;2.55;;;;;;;-3.48;100.00;102487.84;4951334;28;20729;-76
2022/01/21 02:35:23;;;;;;;19.38;2.28;;;;;;;-3.47;100.00;102484.38;4969145;28;20510;-77
2022/01/21 02:37:50;;;;;;;21.65;2.60;;;;;;;-3.43;100.00;102490.34;4967595;28;20035;-76
2022/01/21 02:40:16;;;;;;;16.50;2.10;;;;;;;-3.47;100.00;102494.66;4969190;28;20038;-76
2022/01/21 02:42:42;;;;;;;17.17;2.10;;;;;;;-3.46;100.00;102483.53;4958086;28;20038;-76
2022/01/21 02:45:10;;;;;;;14.77;2.10;;;;;;;-3.47;100.00;102501.50;4977912;28;20505;-76
2022/01/21 02:47:36;;;;;;;20.52;2.10;;;;;;;-3.58;100.00;102497.31;4986423;28;20114;-77
2022/01/21 02:50:03;;;;;;;15.30;1.75;;;;;;;-3.54;100.00;102503.28;4950087;28;20117;-75
2022/01/21 02:52:31;;;;;;;19.73;2.17;;;;;;;-3.54;100.00;102504.13;4983036;28;20049;-76
2022/01/21 02:54:56;;;;;;;15.73;2.05;;;;;;;-3.60;100.00;102498.19;4962840;28;20066;-75
2022/01/21 02:57:22;;;;;;;14.82;2.63;;;;;;;-3.65;100.00;102489.69;4969998;28;20717;-76
2022/01/21 02:59:49;;;;;;;14.75;1.88;;;;;;;-3.56;100.00;102487.91;4968237;28;20113;-76
2022/01/21 03:02:15;;;;;;;21.80;2.40;;;;;;;-3.59;100.00;102481.94;4969269;28;20046;-76
2022/01/21 03:04:56;;;;;;;18.65;2.75;;;;;;;-3.54;100.00;102481.03;4971693;28;20061;-77
2022/01/21 03:07:21;;;;;;;21.95;3.22;;;;;;;-3.55;100.00;102478.47;4952633;28;20046;-77
2022/01/21 03:09:47;;;;;;;27.13;2.75;;;;;;;-3.50;100.00;102492.13;4949292;29;20082;-77
2022/01/21 03:12:13;;;;;;;18.90;2.80;;;;;;;-3.50;100.00;102489.56;4969874;28;20504;-76
2022/01/21 03:14:39;;;;;;;21.40;2.13;;;;;;;-3.48;100.00;102495.53;4973787;28;20046;-76
2022/01/21 03:17:04;;;;;;;13.68;2.65;;;;;;;-3.57;100.00;102488.75;4968621;28;20031;-74
2022/01/21 03:19:30;;;;;;;17.00;2.13;;;;;;;-3.66;100.00;102495.69;4953213;28;20050;-78
2022/01/21 03:21:56;;;;;;;13.15;2.38;;;;;;;-3.48;100.00;102497.22;4974840;28;20039;-74
2022/01/21 03:24:22;;;;;;;13.52;2.10;;;;;;;-3.45;100.00;102500.63;4969156;28;20046;-76
2022/01/21 03:26:47;;;;;;;19.08;2.40;;;;;;;-3.42;100.00;102503.16;4969293;28;20035;-76
2022/01/21 03:29:13;;;;;;;16.10;2.50;;;;;;;-3.23;100.00;102513.28;4963559;28;20092;-76
2022/01/21 03:31:41;;;;;;;29.38;2.40;;;;;;;-3.18;100.00;102509.78;4951975;28;20034;-76
2022/01/21 03:34:06;;;;;;;18.77;2.38;;;;;;;-3.14;100.00;102500.34;4960062;28;20418;-78
2022/01/21 03:36:35;;;;;;;19.45;2.15;;;;;;;-3.05;100.00;102505.41;4965164;28;20085;-76
2022/01/21 03:39:02;;;;;;;14.20;1.92;;;;;;;-2.90;100.00;102499.25;4949796;28;20134;-77
2022/01/21 03:41:28;;;;;;;22.48;2.40;;;;;;;-2.89;100.00;102489.81;4968669;28;20433;-76
2022/01/21 03:43:54;;;;;;;16.85;2.30;;;;;;;-2.82;100.00;102494.88;4981856;28;20049;-77
2022/01/21 03:46:20;;;;;;;16.95;2.38;;;;;;;-2.69;100.00;102489.56;4970029;28;20414;-78
2022/01/21 03:48:48;;;;;;;11.75;2.00;;;;;;;-2.72;100.00;102477.63;4951014;28;20050;-76
2022/01/21 03:51:17;;;;;;;15.85;2.45;;;;;;;-2.72;100.00;102492.19;4966072;28;20047;-77
2022/01/21 03:53:44;;;;;;;13.32;1.75;;;;;;;-2.76;100.00;102479.38;4968802;28;20035;-76
2022/01/21 03:56:10;;;;;;;14.90;2.00;;;;;;;-2.64;100.00;102482.66;4951839;28;20054;-77
2022/01/21 03:58:35;;;;;;;17.38;2.53;;;;;;;-2.61;100.00;102477.50;4970903;28;20046;-76
2022/01/21 04:01:01;;;;;;;16.83;2.08;;;;;;;-2.53;100.00;102469.69;4967135;28;20145;-77
2022/01/21 04:03:29;;;;;;;20.42;2.60;;;;;;;-2.45;100.00;102481.59;4961655;28;20114;-76
2022/01/21 04:05:56;;;;;;;12.55;1.92;;;;;;;-2.36;100.00;102483.16;4967035;28;20117;-76
2022/01/21 04:08:22;;;;;;;24.42;2.60;;;;;;;-2.22;100.00;102476.13;4965905;28;20780;-77
2022/01/21 04:10:58;;;;;;;19.58;3.03;;;;;;;-2.19;100.00;102458.06;4966449;28;20097;-76
2022/01/21 04:13:26;;;;;;;18.15;2.30;;;;;;;-2.19;100.00;102459.78;4952084;28;20031;-76
2022/01/21 04:15:57;;;;;;;17.88;2.22;;;;;;;-2.26;100.00;102466.75;4970084;28;20070;-76
2022/01/21 04:18:23;;;;;;;17.67;2.38;;;;;;;-2.25;100.00;102472.75;4967711;28;20035;-76
2022/01/21 04:20:55;;;;;;;27.45;2.67;;;;;;;-2.17;100.00;102478.59;4968187;28;20055;-76
2022/01/21 04:23:22;;;;;;;21.00;2.65;;;;;;;-2.15;100.00;102482.00;4948326;28;20050;-76
2022/01/21 04:25:49;;;;;;;10.95;2.13;;;;;;;-2.12;100.00;102471.69;4949645;28;20050;-76
2022/01/21 04:28:15;;;;;;;15.77;2.60;;;;;;;-2.14;100.00;102462.31;4968221;28;20045;-77
2022/01/21 04:30:44;;;;;;;12.18;2.00;;;;;;;-2.09;100.00;102460.50;4958447;28;20417;-78
2022/01/21 04:33:10;;;;;;;25.27;3.00;;;;;;;-2.11;100.00;102452.84;4950826;28;20423;-76
2022/01/21 04:35:36;;;;;;;21.20;2.45;;;;;;;-2.13;100.00;102451.13;4984953;28;20034;-77
2022/01/21 04:38:06;;;;;;;22.38;2.47;;;;;;;-1.99;100.00;102449.22;4982995;28;20034;-78
2022/01/21 04:40:36;;;;;;;25.70;2.38;;;;;;;-2.06;100.00;102447.59;4970233;28;20073;-76
2022/01/21 04:48:35;;;;;;;22.90;2.45;;;;;;;-2.07;100.00;102438.19;4981162;28;20058;-76
2022/01/21 04:51:20;;;;;;;21.17;2.83;;;;;;;-2.12;100.00;102440.00;4986491;28;20133;-76
2022/01/21 04:53:48;;;;;;;17.73;1.90;;;;;;;-2.13;100.00;102431.41;4956533;28;20778;-76
2022/01/21 04:56:20;;;;;;;19.58;3.05;;;;;;;-2.16;100.00;102442.59;4967346;28;20126;-76
2022/01/21 04:58:46;;;;;;;18.88;2.25;;;;;;;-2.14;100.00;102441.75;4957068;28;20109;-77
2022/01/21 05:01:12;;;;;;;23.90;3.17;;;;;;;-1.88;100.00;102449.06;4936217;28;20038;-76
2022/01/21 05:03:40;;;;;;;19.98;2.75;;;;;;;-1.96;100.00;102436.28;4952781;28;20523;-75
2022/01/21 05:06:08;;;;;;;26.13;2.67;;;;;;;-1.96;100.00;102450.03;4970761;28;20039;-78
2022/01/21 05:11:36;;;;;;;20.48;2.25;;;;;;;-1.89;100.00;102444.78;4957800;28;20087;-76
2022/01/21 05:14:20;;;;;;;20.50;2.03;;;;;;;-2.02;100.00;102456.97;4970914;28;20513;-76
2022/01/21 05:17:02;;;;;;;14.60;2.28;;;;;;;-2.09;100.00;102460.50;4959572;28;20039;-76
2022/01/21 05:19:28;;;;;;;21.75;2.92;;;;;;;-2.03;100.00;102468.97;4964129;28;20049;-76
2022/01/21 05:22:06;;;;;;;18.48;2.58;;;;;;;-2.08;100.00;102468.19;4988005;28;20043;-77
2022/01/21 05:24:37;;;;;;;20.45;2.22;;;;;;;-2.18;100.00;102479.50;4964824;28;20077;-77
2022/01/21 05:27:03;;;;;;;17.77;3.08;;;;;;;-2.06;100.00;102479.31;4985010;28;20066;-77
2022/01/21 05:29:42;;;;;;;22.17;2.95;;;;;;;-2.22;100.00;102485.56;4957090;28;20524;-77
2022/01/21 05:32:16;;;;;;;24.50;2.85;;;;;;;-2.22;100.00;102480.41;4955797;28;20440;-76
2022/01/21 05:35:01;;;;;;;20.98;2.35;;;;;;;-2.21;100.00;102488.09;4968054;28;20046;-77
2022/01/21 05:37:43;;;;;;;12.80;2.45;;;;;;;-2.31;100.00;102483.97;4985580;28;20529;-76
2022/01/21 05:40:37;;;;;;;22.10;2.28;;;;;;;-2.20;100.00;102501.81;4957411;28;20058;-76
2022/01/21 05:43:22;;;;;;;22.45;2.70;;;;;;;-2.03;100.00;102499.84;4960843;28;20050;-76
2022/01/21 05:49:03;;;;;;;23.60;2.47;;;;;;;-1.97;100.00;102502.31;4970486;28;20027;-77
2022/01/21 05:51:47;;;;;;;21.15;2.35;;;;;;;-1.97;100.00;102501.47;4977185;28;20090;-77
2022/01/21 05:54:41;;;;;;;19.08;2.40;;;;;;;-1.92;100.00;102497.13;4958556;28;20101;-78
2022/01/21 05:57:20;;;;;;;20.33;2.65;;;;;;;-1.94;100.00;102487.72;4943315;28;20078;-76
2022/01/21 05:59:49;;;;;;;20.67;3.22;;;;;;;-1.79;100.00;102490.03;4942961;28;20042;-76
2022/01/21 06:02:15;;;;;;;18.00;2.33;;;;;;;-1.82;100.00;102496.09;4986109;28;20403;-76
2022/01/21 06:04:46;;;;;;;20.02;2.67;;;;;;;-1.87;100.00;102494.47;4957019;28;20054;-77
2022/01/21 06:07:12;;;;;;;16.10;1.85;;;;;;;-1.87;100.00;102494.47;4967224;28;20055;-77
2022/01/21 06:09:38;;;;;;;20.80;2.28;;;;;;;-1.84;100.00;102503.00;4973794;28;20161;-77
2022/01/21 06:12:05;;;;;;;22.83;2.22;;;;;;;-1.75;100.00;102489.16;4983610;28;20042;-77
2022/01/21 06:14:31;;;;;;;20.67;1.98;;;;;;;-1.75;100.00;102504.59;4969557;28;20031;-77
2022/01/21 06:16:57;;;;;;;15.90;1.90;;;;;;;-1.70;100.00;102501.91;4966487;28;20060;-77
2022/01/21 06:19:23;;;;;;;19.55;1.67;;;;;;;-1.51;100.00;102502.47;4985677;28;20038;-77
2022/01/21 06:21:48;;;;;;;15.95;2.38;;;;;;;-1.66;100.00;102485.56;4956812;28;20039;-77
2022/01/21 06:24:14;;;;;;;14.55;1.80;;;;;;;-1.64;100.00;102499.25;4975279;28;20042;-77
2022/01/21 06:26:40;;;;;;;14.18;2.00;;;;;;;-1.65;100.00;102505.28;4966732;28;20369;-76
2022/01/21 06:29:05;;;;;;;20.73;2.40;;;;;;;-1.74;100.00;102511.41;4959537;28;20041;-77
2022/01/21 06:31:31;;;;;;;13.00;1.92;;;;;;;-1.79;100.00;102520.91;4958573;28;20506;-78
2022/01/21 06:33:58;;;;;;;16.75;2.00;;;;;;;-1.87;100.00;102515.03;4954439;29;20027;-77
2022/01/21 06:36:24;;;;;;;16.70;1.73;;;;;;;-1.97;100.00;102522.06;4969468;28;20046;-77
2022/01/21 06:38:49;;;;;;;14.55;1.60;;;;;;;-2.07;100.00;102529.06;4973078;28;20043;-76
2022/01/21 06:41:15;;;;;;;17.25;2.50;;;;;;;-2.09;100.00;102533.38;4979012;28;20590;-76
2022/01/21 06:43:41;;;;;;;13.55;2.00;;;;;;;-2.12;100.00;102532.56;4974265;28;20042;-77
2022/01/21 06:46:09;;;;;;;13.20;1.77;;;;;;;-2.18;100.00;102541.19;4970743;28;20038;-76
2022/01/21 06:48:35;;;;;;;16.52;2.38;;;;;;;-2.18;100.00;102548.91;4952700;28;20458;-77
2022/01/21 06:51:01;;;;;;;17.50;2.13;;;;;;;-2.02;100.00;102534.97;4954336;28;20054;-76
2022/01/21 06:53:26;;;;;;;18.63;1.80;;;;;;;-2.03;100.00;102553.00;4972305;28;20113;-78
2022/01/21 06:55:52;;;;;;;18.08;2.20;;;;;;;-2.05;100.00;102565.03;4974187;28;20039;-79
2022/01/21 06:58:17;;;;;;;21.27;1.85;;;;;;;-2.08;100.00;102565.06;4985587;28;20496;-77
2022/01/21 07:00:43;;;;;;;16.95;1.70;;;;;;;-2.20;100.00;102571.22;4966607;28;20045;-78
2022/01/21 07:03:09;;;;;;;26.75;2.45;;;;;;;-2.21;100.00;102574.66;4966549;28;20867;-79
2022/01/21 07:05:34;;;;;;;23.05;1.77;;;;;;;-2.27;100.00;102574.75;4952130;28;20046;-78
2022/01/21 07:08:01;;;;;;;13.52;1.83;;;;;;;-2.27;100.00;102579.88;4969375;28;20050;-78
2022/01/21 07:10:29;;;;;;;25.25;2.47;;;;;;;-2.14;100.00;102585.72;4951185;28;20459;-77
2022/01/21 07:12:55;;;;;;;16.90;1.73;;;;;;;-2.32;100.00;102573.94;4947266;28;20035;-76
2022/01/21 07:15:21;;;;;;;12.38;1.90;;;;;;;-2.26;100.00;102595.28;4949036;28;21065;-78
2022/01/21 07:17:53;;;;;;;23.80;2.00;;;;;;;-2.34;100.00;102586.81;4970894;28;20614;-78
2022/01/21 07:20:20;;;;;;;24.90;2.38;;;;;;;-2.28;100.00;102597.03;4970144;28;20043;-77
2022/01/21 07:22:46;;;;;;;10.27;1.45;;;;;;;-2.08;100.00;102607.06;4950031;28;20038;-78
2022/01/21 07:25:13;;;;;;;12.75;1.52;;;;;;;-2.21;100.00;102600.34;4967484;28;20039;-77
2022/01/21 07:27:39;;;;;;;13.23;1.70;;;;;;;-2.29;100.00;102594.47;4954026;28;20031;-77
2022/01/21 07:30:05;;;;;;;14.93;1.80;;;;;;;-2.21;100.00;102610.66;4967775;28;20031;-77
2022/01/21 07:32:31;;;;;;;15.10;2.08;;;;;;;-2.34;100.00;102594.50;4970066;28;20092;-77
2022/01/21 07:34:57;;;;;;;15.52;1.80;;;;;;;-2.29;100.00;102600.47;4967355;28;20717;-77
2022/01/21 07:37:22;;;;;;;13.77;1.80;;;;;;;-2.35;100.00;102609.09;4953805;28;20047;-77
2022/01/21 07:39:48;;;;;;;15.00;1.23;;;;;;;-2.32;100.00;102602.22;4966339;28;20157;-78
2022/01/21 07:42:14;;;;;;;11.13;1.50;;;;;;;-2.29;100.00;102603.03;4969509;28;20031;-77
2022/01/21 07:44:40;;;;;;;16.45;2.45;;;;;;;-2.17;100.00;102607.16;4947983;28;20081;-76
2022/01/21 07:47:06;;;;;;;13.55;1.50;;;;;;;-2.27;100.00;102597.88;4967966;28;20123;-77
2022/01/21 07:49:31;;;;;;;14.50;1.98;;;;;;;-2.31;100.00;102597.06;4969371;28;20050;-78
2022/01/21 07:51:57;;;;;;;9.43;1.35;;;;;;;-2.16;100.00;102603.72;4967202;28;20039;-77
2022/01/21 07:54:23;;;;;;;13.18;1.65;;;;;;;-2.18;100.00;102605.47;4981722;28;20041;-77
2022/01/21 07:56:48;;;;;;;14.55;1.55;;;;;;;-2.11;100.00;102619.97;4967659;28;20552;-77
2022/01/21 07:59:15;;;;;;;11.98;1.50;;;;;;;-2.14;100.00;102614.84;4983014;28;20042;-77
2022/01/21 08:01:42;;;;;;;11.80;1.55;;;;;;;-2.08;100.00;102629.34;4955674;28;20501;-77
2022/01/21 08:04:08;;;;;;;13.70;1.60;;;;;;;-2.10;100.00;102613.09;4981942;28;20043;-78
2022/01/21 08:06:34;;;;;;;21.40;1.85;;;;;;;-1.93;100.00;102620.59;4969454;28;20113;-78
2022/01/21 08:09:00;;;;;;;11.25;1.83;;;;;;;-1.88;100.00;102621.41;4976867;28;20042;-77
2022/01/21 08:11:26;;;;;;;11.85;1.55;;;;;;;-1.76;100.00;102627.19;4947743;28;20034;-77
2022/01/21 08:13:52;;;;;;;10.82;1.85;;;;;;;-1.76;100.00;102616.06;4982972;28;20050;-77
2022/01/21 08:16:18;;;;;;;5.47;1.23;;;;;;;-1.61;100.00;102630.44;4972351;28;20533;-79
2022/01/21 08:18:45;;;;;;;16.33;1.80;;;;;;;-1.65;100.00;102639.94;4956415;28;20043;-77
2022/01/21 08:21:18;;;;;;;11.27;2.17;;;;;;;-1.70;100.00;102638.28;4939640;28;20045;-78
2022/01/21 08:23:44;;;;;;;15.45;2.25;;;;;;;-1.67;100.00;102648.56;4957346;28;20517;-77
2022/01/21 08:26:10;;;;;;;11.48;2.05;;;;;;;-1.72;100.00;102642.59;4956635;28;20082;-79
2022/01/21 08:28:35;;;;;;;7.40;1.95;;;;;;;-1.61;100.00;102649.31;4974118;28;20106;-77
2022/01/21 08:31:01;;;;;;;8.60;1.40;;;;;;;-1.63;100.00;102645.06;4972042;28;20546;-78
2022/01/21 08:33:28;;;;;;;13.60;1.75;;;;;;;-1.67;100.00;102635.69;4973290;28;20045;-77
2022/01/21 08:35:53;;;;;;;19.30;1.95;;;;;;;-1.73;100.00;102638.31;4971961;28;20496;-77
2022/01/21 08:38:21;;;;;;;11.52;1.75;;;;;;;-1.74;100.00;102646.94;4952585;28;20041;-77
2022/01/21 08:40:48;;;;;;;11.50;1.80;;;;;;;-1.64;100.00;102633.91;4972192;28;20043;-78
2022/01/21 08:43:14;;;;;;;11.38;1.88;;;;;;;-1.57;99.75;102656.09;4986004;28;20043;-77
2022/01/21 08:45:40;;;;;;;10.18;1.58;;;;;;;-1.31;98.05;102657.47;4973125;28;20034;-77
2022/01/21 08:48:05;;;;;;;10.13;1.70;;;;;;;-1.16;95.28;102660.69;4971991;28;20031;-77
2022/01/21 08:50:31;;;;;;;19.80;2.67;;;;;;;-1.07;93.79;102666.53;4977299;28;20062;-77
2022/01/21 08:53:08;;;;;;;9.55;1.52;;;;;;;-1.04;95.26;102665.63;4940619;28;20406;-78
2022/01/21 08:55:34;;;;;;;6.10;1.38;;;;;;;-0.96;93.24;102679.25;4964542;28;20034;-78
2022/01/21 08:58:01;;;;;;;14.15;1.40;;;;;;;-0.92;93.95;102672.31;4988195;28;20058;-79
2022/01/21 09:00:26;;;;;;;13.43;1.70;;;;;;;-0.89;93.51;102672.25;4986159;28;20050;-77
2022/01/21 09:02:53;;;;;;;11.45;2.35;;;;;;;-0.87;93.34;102668.78;4966076;28;20031;-79
2022/01/21 09:05:19;;;;;;;12.32;1.60;;;;;;;-0.78;93.76;102675.50;4987172;28;20042;-78
2022/01/21 09:07:45;;;;;;;8.40;1.20;;;;;;;-0.76;92.69;102685.81;4974367;28;20030;-78
2022/01/21 09:10:11;;;;;;;12.30;1.60;;;;;;;-0.62;92.03;102676.13;4930043;28;20402;-77
2022/01/21 09:12:38;;;;;;;10.20;1.40;;;;;;;-0.54;90.83;102670.81;4958164;28;20333;-77
2022/01/21 09:15:06;;;;;;;8.55;1.42;;;;;;;-0.50;91.76;102678.47;4955484;28;20514;-78
2022/01/21 09:17:34;;;;;;;11.43;1.30;;;;;;;-0.47;89.67;102686.16;4960771;28;20096;-78
2022/01/21 09:19:59;;;;;;;13.23;1.73;;;;;;;-0.38;89.34;102679.13;4985038;28;20135;-77
2022/01/21 09:22:25;;;;;;;8.43;1.40;;;;;;;-0.41;90.18;102680.03;4973945;28;20137;-77
2022/01/21 09:24:51;;;;;;;9.43;1.30;;;;;;;-0.41;90.52;102682.59;4971194;28;20038;-78
2022/01/21 09:27:16;;;;;;;6.25;1.40;;;;;;;-0.33;91.70;102687.63;4934363;28;20038;-77
2022/01/21 09:29:42;;;;;;;10.40;1.33;;;;;;;-0.37;92.03;102694.56;4957993;28;20045;-77
2022/01/21 09:32:07;;;;;;;8.55;1.70;;;;;;;-0.24;90.59;102692.63;4970288;28;20050;-78
2022/01/21 09:34:33;;;;;;;10.82;1.70;;;;;;;-0.22;89.61;102696.00;4970754;28;20529;-77
2022/01/21 09:37:00;;;;;;;8.68;1.80;;;;;;;-0.14;87.51;102707.03;4951532;28;20041;-77
2022/01/21 09:39:28;;;;;;;11.32;1.80;;;;;;;-0.09;88.71;102700.06;4973206;28;20050;-77
2022/01/21 09:42:02;;;;;;;11.18;2.03;;;;;;;0.01;89.31;102703.28;4968706;28;20031;-78
2022/01/21 09:44:31;;;;;;;12.65;2.20;;;;;;;0.11;86.30;102703.97;4973973;28;20037;-77
2022/01/21 09:46:59;;;;;;;12.73;1.98;;;;;;;0.16;86.19;102702.97;4964042;28;20038;-77
2022/01/21 09:51:54;;;;;;;13.13;1.92;;;;;;;0.30;83.80;102701.84;4974839;28;20054;-77
2022/01/21 09:54:22;;;;;;;15.13;2.03;;;;;;;0.29;84.11;102695.84;4978269;28;20125;-79
2022/01/21 09:56:49;;;;;;;5.55;1.52;;;;;;;0.43;84.92;102705.88;4957374;28;20043;-76
2022/01/21 09:59:17;;;;;;;7.38;1.40;;;;;;;0.45;80.72;102700.69;4971954;28;20059;-77
2022/01/21 10:01:48;;;;;;;10.93;1.63;;;;;;;0.60;81.02;102700.34;4973444;28;20971;-78
2022/01/21 10:04:14;;;;;;;9.13;1.70;;;;;;;0.60;82.16;102699.50;4973302;28;20062;-78
2022/01/21 10:06:44;;;;;;;9.07;1.42;;;;;;;0.64;81.41;102708.88;4971551;28;20082;-77
2022/01/21 10:09:10;;;;;;;8.80;1.50;;;;;;;0.81;81.63;102711.06;4971239;28;20031;-77
2022/01/21 10:11:35;;;;;;;13.10;1.75;;;;;;;0.86;81.69;102706.66;4971000;28;20594;-78
2022/01/21 10:14:01;;;;;;;8.60;1.45;;;;;;;0.86;81.67;102702.34;4987315;28;20116;-76
2022/01/21 10:16:27;;;;;;;9.00;1.42;;;;;;;0.89;80.42;102706.59;4989626;28;20066;-77
2022/01/21 10:19:04;;;;;;;8.68;1.30;;;;;;;0.95;80.05;102717.63;4972721;28;20053;-76
2022/01/21 10:21:33;;;;;;;8.23;1.15;;;;;;;1.01;79.44;102724.38;4982008;28;20435;-77
2022/01/21 10:24:13;;;;;;;6.68;1.23;;;;;;;1.07;81.09;102718.22;4969339;28;20038;-77
2022/01/21 10:26:47;;;;;;;12.90;1.92;;;;;;;1.09;80.04;102713.88;4956051;28;20027;-77
2022/01/21 10:29:13;;;;;;;15.00;2.00;;;;;;;1.17;79.73;102725.72;4965328;28;20043;-77
2022/01/21 10:31:58;;;;;;;7.03;1.92;;;;;;;1.18;79.54;102716.22;4967081;28;20522;-77
2022/01/21 10:34:35;;;;;;;5.63;1.60;;;;;;;1.38;79.90;102714.91;4986299;28;20034;-78
2022/01/21 10:37:09;;;;;;;9.23;1.83;;;;;;;1.51;81.51;102729.22;4958021;28;20053;-76
2022/01/21 10:39:54;;;;;;;10.15;2.45;;;;;;;1.53;82.89;102732.63;4971678;28;20039;-77
2022/01/21 10:42:22;;;;;;;13.73;1.95;;;;;;;1.46;81.95;102731.06;4955957;28;20182;-77
2022/01/21 10:44:49;;;;;;;6.50;1.50;;;;;;;1.39;80.86;102717.44;4936617;28;20579;-77
2022/01/21 10:47:15;;;;;;;9.32;1.52;;;;;;;1.58;81.28;102730.72;4984211;28;20043;-77
2022/01/21 10:49:43;;;;;;;7.88;1.48;;;;;;;1.64;83.02;102733.19;4959917;28;20042;-77
2022/01/21 10:52:10;;;;;;;13.70;1.55;;;;;;;1.84;80.47;102722.28;4983118;28;20069;-77
2022/01/21 10:54:49;;;;;;;9.05;1.35;;;;;;;1.85;81.56;102731.75;4970808;28;20453;-78
2022/01/21 10:57:17;;;;;;;9.50;1.50;;;;;;;2.03;82.21;102734.72;4987692;28;20034;-77
2022/01/21 10:59:54;;;;;;;10.63;1.58;;;;;;;2.05;80.87;102723.44;4984873;28;20034;-76
2022/01/21 11:02:33;;;;;;;7.15;1.30;;;;;;;2.08;82.62;102733.72;4966167;28;20065;-79
2022/01/21 11:05:04;;;;;;;12.20;1.70;;;;;;;2.19;81.88;102727.41;4970427;28;20034;-77
2022/01/21 11:07:54;;;;;;;20.33;2.30;;;;;;;2.29;81.39;102721.91;4964764;28;20514;-77
2022/01/21 11:10:32;;;;;;;12.68;1.70;;;;;;;2.34;83.66;102729.56;4984668;28;20110;-77
2022/01/21 11:13:01;;;;;;;12.48;1.92;;;;;;;2.54;80.34;102728.94;4955636;28;20077;-77
2022/01/21 11:15:56;;;;;;;7.57;1.48;;;;;;;2.61;82.63;102732.22;4944426;28;20039;-77
2022/01/21 11:18:23;;;;;;;12.73;1.67;;;;;;;2.66;83.84;102713.03;4971017;28;20054;-78
2022/01/21 11:20:55;;;;;;;7.88;1.25;;;;;;;2.66;83.18;102725.16;4984426;28;20769;-78
2022/01/21 11:23:23;;;;;;;10.70;1.30;;;;;;;2.54;83.82;102700.44;4950270;28;20070;-77
2022/01/21 11:25:56;;;;;;;13.52;1.73;;;;;;;2.71;84.27;102718.94;4953842;28;20041;-77
2022/01/21 11:28:24;;;;;;;11.75;1.38;;;;;;;2.83;83.91;102724.66;4931837;28;20159;-78
2022/01/21 11:30:51;;;;;;;11.45;1.83;;;;;;;2.86;85.69;102714.16;4970515;28;20101;-78
2022/01/21 11:33:20;;;;;;;11.75;1.90;;;;;;;3.00;85.32;102719.78;4978927;28;20545;-78
2022/01/21 11:35:49;;;;;;;11.98;2.22;;;;;;;3.11;84.95;102712.50;4933448;28;20727;-77
2022/01/21 11:38:17;;;;;;;14.30;1.75;;;;;;;3.29;83.61;102713.63;4954942;28;20066;-77
2022/01/21 11:40:44;;;;;;;11.57;1.70;;;;;;;3.49;84.46;102714.72;4987575;28;20525;-78
2022/01/21 11:43:11;;;;;;;13.02;1.83;;;;;;;3.61;83.49;102703.91;4991754;28;20066;-78
2022/01/21 11:50:45;;;;;;;11.02;2.08;;;;;;;3.75;83.73;102690.47;4971750;28;20034;-77
2022/01/21 11:53:11;;;;;;;17.63;2.25;;;;;;;3.56;86.05;102694.56;4985035;28;20487;-78
2022/01/21 11:55:41;;;;;;;13.27;1.60;;;;;;;3.58;86.00;102693.66;4956328;28;20038;-77
2022/01/21 11:58:19;;;;;;;16.15;2.00;;;;;;;3.55;87.51;102688.56;4966766;28;20034;-78
2022/01/21 12:00:48;;;;;;;11.90;1.75;;;;;;;3.55;88.18;102691.13;4962259;28;20980;-78
2022/01/21 12:03:14;;;;;;;13.70;1.90;;;;;;;3.55;88.60;102691.13;4983684;28;20050;-78
2022/01/21 12:05:40;;;;;;;11.95;1.75;;;;;;;3.49;87.95;102681.81;4954446;28;20073;-78
2022/01/21 12:08:06;;;;;;;14.18;2.03;;;;;;;3.40;88.77;102676.09;4972329;28;20070;-76
2022/01/21 12:10:43;;;;;;;12.82;1.75;;;;;;;3.49;89.66;102673.19;4985915;28;20121;-77
2022/01/21 12:13:21;;;;;;;22.55;2.33;;;;;;;3.51;90.58;102674.00;4963204;28;20038;-77
2022/01/21 12:16:17;;;;;;;14.73;2.17;;;;;;;3.61;91.19;102669.31;4962335;28;20035;-78
2022/01/21 12:21:29;;;;;;;20.02;2.45;;;;;;;3.61;92.52;102664.97;4969136;28;20070;-78
2022/01/21 12:23:55;;;;;;;14.80;2.28;;;;;;;3.69;91.96;102659.50;4951680;28;20050;-78
2022/01/21 12:26:25;;;;;;;19.13;2.30;;;;;;;3.59;93.14;102650.38;4966241;28;20035;-78
2022/01/21 12:28:54;;;;;;;15.35;2.47;;;;;;;3.60;94.78;102652.03;4954013;28;20041;-78
2022/01/21 12:31:24;;;;;;;9.68;1.88;;;;;;;3.56;96.26;102645.28;4968791;28;20493;-77